sensor_id;sensor_type;location;lat;lon;timestamp;P1;durP1;ratioP1;P2;durP2;ratioP2
51692;SDS011;37777;53.066;21.638;2024-02-21T00:31:28;33.42;;;31.13;;
51692;SDS011;37777;53.066;21.638;2024-02-21T01:20:26;32.30;;;29.35;;
51692;SDS011;37777;53.066;21.638;2024-02-21T01:27:28;31.15;;;28.98;;
51692;SDS011;37777;53.066;21.638;2024-02-21T01:34:30;27.73;;;25.25;;
51692;SDS011;37777;53.066;21.638;2024-02-21T02:15:02;22.30;;;18.55;;
51692;SDS011;37777;53.066;21.638;2024-02-21T02:30:31;24.92;;;22.27;;
51692;SDS011;37777;53.066;21.638;2024-02-21T02:37:34;19.70;;;18.20;;
51692;SDS011;37777;53.066;21.638;2024-02-21T02:44:35;31.98;;;23.98;;
51692;SDS011;37777;53.066;21.638;2024-02-21T03:00:08;21.58;;;19.70;;
51692;SDS011;37777;53.066;21.638;2024-02-21T03:07:12;23.35;;;21.15;;
51692;SDS011;37777;53.066;21.638;2024-02-21T03:22:37;25.80;;;23.33;;
51692;SDS011;37777;53.066;21.638;2024-02-21T03:46:27;25.92;;;23.55;;
51692;SDS011;37777;53.066;21.638;2024-02-21T04:18:35;28.48;;;25.80;;
51692;SDS011;37777;53.066;21.638;2024-02-21T04:42:24;30.10;;;26.73;;
51692;SDS011;37777;53.066;21.638;2024-02-21T04:49:26;31.52;;;27.38;;
51692;SDS011;37777;53.066;21.638;2024-02-21T05:12:11;40.13;;;27.08;;
51692;SDS011;37777;53.066;21.638;2024-02-21T05:27:35;27.02;;;24.88;;
51692;SDS011;37777;53.066;21.638;2024-02-21T05:34:37;27.85;;;24.88;;
51692;SDS011;37777;53.066;21.638;2024-02-21T05:41:42;27.48;;;24.48;;
51692;SDS011;37777;53.066;21.638;2024-02-21T05:48:44;35.08;;;26.00;;
51692;SDS011;37777;53.066;21.638;2024-02-21T06:04:07;39.20;;;29.08;;
51692;SDS011;37777;53.066;21.638;2024-02-21T06:19:36;29.95;;;26.30;;
51692;SDS011;37777;53.066;21.638;2024-02-21T06:26:38;42.35;;;26.92;;
51692;SDS011;37777;53.066;21.638;2024-02-21T06:33:56;34.58;;;29.33;;
51692;SDS011;37777;53.066;21.638;2024-02-21T06:40:58;35.33;;;24.90;;
51692;SDS011;37777;53.066;21.638;2024-02-21T06:48:02;33.80;;;24.92;;
51692;SDS011;37777;53.066;21.638;2024-02-21T06:55:03;36.90;;;26.67;;
51692;SDS011;37777;53.066;21.638;2024-02-21T07:10:27;31.58;;;27.77;;
51692;SDS011;37777;53.066;21.638;2024-02-21T07:17:30;39.30;;;24.65;;
51692;SDS011;37777;53.066;21.638;2024-02-21T07:32:54;44.55;;;26.75;;
51692;SDS011;37777;53.066;21.638;2024-02-21T07:39:56;31.48;;;22.75;;
51692;SDS011;37777;53.066;21.638;2024-02-21T07:46:57;28.90;;;23.85;;
51692;SDS011;37777;53.066;21.638;2024-02-21T07:53:59;26.30;;;23.52;;
51692;SDS011;37777;53.066;21.638;2024-02-21T08:01:00;28.02;;;22.33;;
51692;SDS011;37777;53.066;21.638;2024-02-21T08:08:03;30.85;;;24.30;;
51692;SDS011;37777;53.066;21.638;2024-02-21T08:15:05;43.78;;;28.98;;
51692;SDS011;37777;53.066;21.638;2024-02-21T08:47:16;34.50;;;26.08;;
51692;SDS011;37777;53.066;21.638;2024-02-21T08:54:17;35.75;;;24.83;;
51692;SDS011;37777;53.066;21.638;2024-02-21T09:01:19;38.20;;;25.05;;
51692;SDS011;37777;53.066;21.638;2024-02-21T09:15:42;32.85;;;22.80;;
51692;SDS011;37777;53.066;21.638;2024-02-21T09:22:53;28.85;;;20.15;;
51692;SDS011;37777;53.066;21.638;2024-02-21T09:29:54;37.05;;;20.50;;
51692;SDS011;37777;53.066;21.638;2024-02-21T09:44:33;35.42;;;23.88;;
51692;SDS011;37777;53.066;21.638;2024-02-21T09:51:44;30.85;;;24.95;;
51692;SDS011;37777;53.066;21.638;2024-02-21T09:58:47;33.85;;;30.52;;
51692;SDS011;37777;53.066;21.638;2024-02-21T10:13:09;45.58;;;31.25;;
51692;SDS011;37777;53.066;21.638;2024-02-21T10:45:17;35.45;;;26.13;;
51692;SDS011;37777;53.066;21.638;2024-02-21T11:43:08;26.58;;;21.38;;
51692;SDS011;37777;53.066;21.638;2024-02-21T11:50:09;34.88;;;23.75;;
51692;SDS011;37777;53.066;21.638;2024-02-21T12:12:35;24.60;;;19.30;;
51692;SDS011;37777;53.066;21.638;2024-02-21T12:19:40;25.77;;;22.92;;
51692;SDS011;37777;53.066;21.638;2024-02-21T12:35:03;34.78;;;23.35;;
51692;SDS011;37777;53.066;21.638;2024-02-21T12:42:05;33.03;;;24.08;;
51692;SDS011;37777;53.066;21.638;2024-02-21T12:49:07;30.27;;;22.15;;
51692;SDS011;37777;53.066;21.638;2024-02-21T12:56:09;33.38;;;21.35;;
51692;SDS011;37777;53.066;21.638;2024-02-21T13:03:10;21.83;;;19.83;;
51692;SDS011;37777;53.066;21.638;2024-02-21T13:10:12;28.40;;;20.50;;
51692;SDS011;37777;53.066;21.638;2024-02-21T13:17:15;27.35;;;19.95;;
51692;SDS011;37777;53.066;21.638;2024-02-21T13:24:18;29.45;;;19.27;;
51692;SDS011;37777;53.066;21.638;2024-02-21T13:56:32;43.90;;;22.48;;
51692;SDS011;37777;53.066;21.638;2024-02-21T14:03:33;36.38;;;22.17;;
51692;SDS011;37777;53.066;21.638;2024-02-21T14:10:35;31.20;;;19.05;;
51692;SDS011;37777;53.066;21.638;2024-02-21T14:17:36;28.40;;;19.73;;
51692;SDS011;37777;53.066;21.638;2024-02-21T14:24:38;35.13;;;22.38;;
51692;SDS011;37777;53.066;21.638;2024-02-21T14:31:40;18.75;;;16.27;;
51692;SDS011;37777;53.066;21.638;2024-02-21T14:38:41;35.78;;;20.60;;
51692;SDS011;37777;53.066;21.638;2024-02-21T14:54:20;33.00;;;19.50;;
51692;SDS011;37777;53.066;21.638;2024-02-21T15:01:21;22.10;;;16.08;;
51692;SDS011;37777;53.066;21.638;2024-02-21T15:08:23;25.90;;;18.08;;
51692;SDS011;37777;53.066;21.638;2024-02-21T15:15:24;37.03;;;21.00;;
51692;SDS011;37777;53.066;21.638;2024-02-21T15:22:26;30.42;;;22.08;;
51692;SDS011;37777;53.066;21.638;2024-02-21T15:29:28;35.55;;;20.88;;
51692;SDS011;37777;53.066;21.638;2024-02-21T15:36:29;33.42;;;20.55;;
51692;SDS011;37777;53.066;21.638;2024-02-21T15:43:31;22.88;;;17.48;;
51692;SDS011;37777;53.066;21.638;2024-02-21T15:50:33;25.38;;;18.15;;
51692;SDS011;37777;53.066;21.638;2024-02-21T16:23:17;17.38;;;15.80;;
51692;SDS011;37777;53.066;21.638;2024-02-21T16:30:18;24.55;;;18.90;;
51692;SDS011;37777;53.066;21.638;2024-02-21T16:37:20;21.88;;;18.17;;
51692;SDS011;37777;53.066;21.638;2024-02-21T16:44:22;24.75;;;18.02;;
51692;SDS011;37777;53.066;21.638;2024-02-21T16:51:27;18.98;;;16.98;;
51692;SDS011;37777;53.066;21.638;2024-02-21T16:58:29;18.60;;;16.17;;
51692;SDS011;37777;53.066;21.638;2024-02-21T17:05:37;18.45;;;16.13;;
51692;SDS011;37777;53.066;21.638;2024-02-21T17:12:39;28.60;;;20.67;;
51692;SDS011;37777;53.066;21.638;2024-02-21T17:19:41;27.42;;;19.67;;
51692;SDS011;37777;53.066;21.638;2024-02-21T17:26:42;17.48;;;15.48;;
51692;SDS011;37777;53.066;21.638;2024-02-21T17:33:45;41.05;;;25.60;;
51692;SDS011;37777;53.066;21.638;2024-02-21T17:40:47;28.83;;;21.35;;
51692;SDS011;37777;53.066;21.638;2024-02-21T17:47:50;41.28;;;26.50;;
51692;SDS011;37777;53.066;21.638;2024-02-21T17:54:53;24.92;;;21.52;;
51692;SDS011;37777;53.066;21.638;2024-02-21T18:01:55;22.77;;;18.33;;
51692;SDS011;37777;53.066;21.638;2024-02-21T18:08:57;32.15;;;20.38;;
51692;SDS011;37777;53.066;21.638;2024-02-21T18:16:01;32.60;;;19.63;;
51692;SDS011;37777;53.066;21.638;2024-02-21T18:31:26;37.97;;;24.33;;
51692;SDS011;37777;53.066;21.638;2024-02-21T18:38:32;36.20;;;18.67;;
51692;SDS011;37777;53.066;21.638;2024-02-21T18:45:33;29.50;;;19.05;;
51692;SDS011;37777;53.066;21.638;2024-02-21T19:01:15;21.15;;;17.15;;
51692;SDS011;37777;53.066;21.638;2024-02-21T19:08:17;32.88;;;23.25;;
51692;SDS011;37777;53.066;21.638;2024-02-21T19:15:19;27.95;;;19.58;;
51692;SDS011;37777;53.066;21.638;2024-02-21T19:55:49;28.55;;;20.50;;
51692;SDS011;37777;53.066;21.638;2024-02-21T20:02:50;27.23;;;19.42;;
51692;SDS011;37777;53.066;21.638;2024-02-21T20:17:18;36.85;;;23.55;;
51692;SDS011;37777;53.066;21.638;2024-02-21T20:24:20;36.63;;;23.20;;
51692;SDS011;37777;53.066;21.638;2024-02-21T20:31:24;29.33;;;19.35;;
51692;SDS011;37777;53.066;21.638;2024-02-21T20:38:28;37.88;;;23.60;;
51692;SDS011;37777;53.066;21.638;2024-02-21T20:53:58;27.15;;;21.85;;
51692;SDS011;37777;53.066;21.638;2024-02-21T21:00:59;44.25;;;24.45;;
51692;SDS011;37777;53.066;21.638;2024-02-21T21:24:52;36.38;;;26.67;;
51692;SDS011;37777;53.066;21.638;2024-02-21T21:31:54;25.90;;;23.08;;
51692;SDS011;37777;53.066;21.638;2024-02-21T21:46:17;38.00;;;21.83;;
51692;SDS011;37777;53.066;21.638;2024-02-21T21:53:19;43.05;;;24.65;;
51692;SDS011;37777;53.066;21.638;2024-02-21T22:00:21;34.70;;;23.05;;
51692;SDS011;37777;53.066;21.638;2024-02-21T22:07:22;38.03;;;23.83;;
51692;SDS011;37777;53.066;21.638;2024-02-21T23:04:36;35.35;;;23.30;;
51692;SDS011;37777;53.066;21.638;2024-02-21T23:11:38;40.95;;;28.52;;
51692;SDS011;37777;53.066;21.638;2024-02-21T23:18:39;51.15;;;27.80;;
51692;SDS011;37777;53.066;21.638;2024-02-21T23:25:42;43.58;;;25.80;;
51692;SDS011;37777;53.066;21.638;2024-02-21T23:32:44;39.28;;;23.42;;
51692;SDS011;37777;53.066;21.638;2024-02-21T23:39:46;30.63;;;22.92;;
51692;SDS011;37777;53.066;21.638;2024-02-21T23:46:48;41.30;;;26.77;;
51692;SDS011;37777;53.066;21.638;2024-02-21T23:53:49;45.60;;;25.77;;
